createdAt,value
2022-08-20T00:01:01.600Z,20.72
2022-08-20T00:04:06.429Z,20.76
2022-08-20T00:07:09.427Z,20.72
2022-08-20T00:10:12.369Z,20.80
2022-08-20T00:13:24.273Z,20.84
2022-08-20T00:16:29.673Z,20.75
2022-08-20T00:19:32.210Z,20.77
2022-08-20T00:22:35.267Z,20.76
2022-08-20T00:25:38.720Z,20.71
2022-08-20T00:28:41.548Z,20.76
2022-08-20T00:31:44.156Z,20.71
2022-08-20T00:34:47.072Z,20.85
2022-08-20T00:37:50.135Z,20.77
2022-08-20T00:40:56.332Z,20.81
2022-08-20T00:44:07.344Z,20.71
2022-08-20T00:47:10.172Z,20.67
2022-08-20T00:50:17.398Z,20.67
2022-08-20T00:53:22.105Z,20.63
2022-08-20T00:56:24.903Z,20.62
2022-08-20T00:59:31.024Z,20.56
2022-08-20T01:02:34.916Z,20.53
2022-08-20T01:05:40.835Z,20.68
2022-08-20T01:08:43.349Z,20.61
2022-08-20T01:11:46.712Z,20.52
2022-08-20T01:14:49.335Z,20.46
2022-08-20T01:17:58.536Z,20.50
2022-08-20T01:21:05.610Z,20.58
2022-08-20T01:24:22.217Z,20.53
2022-08-20T01:27:24.957Z,20.55
2022-08-20T01:30:29.027Z,20.62
2022-08-20T01:33:32.218Z,20.60
2022-08-20T01:36:46.291Z,20.61
2022-08-20T01:39:49.202Z,20.61
2022-08-20T01:42:58.521Z,20.53
2022-08-20T01:46:02.378Z,20.53
2022-08-20T01:49:23.240Z,20.65
2022-08-20T01:52:51.803Z,20.75
2022-08-20T01:55:54.749Z,20.67
2022-08-20T01:58:59.719Z,20.64
2022-08-20T02:02:03.263Z,20.62
2022-08-20T02:05:06.536Z,20.43
2022-08-20T02:08:09.106Z,20.36
2022-08-20T02:11:12.996Z,20.30
2022-08-20T02:14:16.616Z,20.20
2022-08-20T02:17:23.210Z,20.11
2022-08-20T02:20:30.292Z,20.20
2022-08-20T02:23:33.612Z,20.12
2022-08-20T02:26:37.836Z,20.08
2022-08-20T02:29:41.123Z,20.04
2022-08-20T02:32:43.747Z,20.07
2022-08-20T02:35:49.986Z,20.06
2022-08-20T02:38:52.509Z,20.06
2022-08-20T02:41:55.344Z,20.22
2022-08-20T02:44:58.652Z,20.31
2022-08-20T02:48:01.801Z,20.26
2022-08-20T02:51:06.563Z,20.29
2022-08-20T02:54:09.359Z,20.23
2022-08-20T02:57:16.956Z,20.18
2022-08-20T03:00:21.596Z,20.17
2022-08-20T03:03:25.059Z,20.12
2022-08-20T03:06:28.220Z,20.21
2022-08-20T03:09:30.904Z,20.03
2022-08-20T03:12:34.265Z,20.07
2022-08-20T03:15:36.890Z,20.01
2022-08-20T03:18:43.888Z,20.13
2022-08-20T03:21:46.797Z,20.29
2022-08-20T03:24:49.584Z,20.34
2022-08-20T03:27:54.319Z,20.23
2022-08-20T03:30:59.405Z,20.16
2022-08-20T03:34:01.908Z,20.20
2022-08-20T03:37:05.077Z,20.18
2022-08-20T03:40:15.543Z,20.29
2022-08-20T03:43:18.795Z,20.28
2022-08-20T03:46:23.549Z,20.24
2022-08-20T03:49:27.001Z,20.36
2022-08-20T03:52:29.512Z,20.30
2022-08-20T03:55:32.888Z,20.33
2022-08-20T03:58:36.652Z,20.41
2022-08-20T04:01:45.855Z,20.41
2022-08-20T04:04:49.489Z,20.37
2022-08-20T04:07:52.534Z,20.52
2022-08-20T04:10:57.719Z,20.46
2022-08-20T04:14:00.223Z,20.49
2022-08-20T04:17:09.963Z,20.47
2022-08-20T04:20:18.435Z,20.50
2022-08-20T04:23:22.042Z,20.54
2022-08-20T04:26:24.752Z,20.60
2022-08-20T04:29:32.438Z,20.68
2022-08-20T04:32:36.942Z,20.84
2022-08-20T04:35:41.087Z,20.79
2022-08-20T04:38:47.866Z,20.81
2022-08-20T04:41:53.077Z,20.71
2022-08-20T04:44:55.544Z,20.65
2022-08-20T04:48:05.604Z,20.69
2022-08-20T04:51:09.061Z,20.71
2022-08-20T04:54:14.270Z,20.69
2022-08-20T04:57:16.809Z,20.70
2022-08-20T05:00:20.233Z,20.79
2022-08-20T05:03:23.847Z,20.85
2022-08-20T05:06:31.020Z,20.87
2022-08-20T05:09:43.663Z,20.89
2022-08-20T05:12:56.938Z,20.97
2022-08-20T05:16:01.990Z,20.94
2022-08-20T05:19:06.865Z,20.99
2022-08-20T05:22:10.087Z,21.12
2022-08-20T05:25:12.980Z,21.23
2022-08-20T05:28:21.821Z,21.31
2022-08-20T05:31:24.667Z,21.47
2022-08-20T05:34:35.284Z,21.48
2022-08-20T05:37:41.208Z,21.65
2022-08-20T05:40:45.311Z,21.74
2022-08-20T05:43:48.156Z,21.90
2022-08-20T05:46:54.153Z,22.09
2022-08-20T05:49:56.944Z,22.26
2022-08-20T05:53:01.454Z,22.33
2022-08-20T05:56:04.454Z,22.33
2022-08-20T05:59:08.973Z,22.23
2022-08-20T06:02:30.670Z,22.21
2022-08-20T06:05:34.514Z,22.20
2022-08-20T06:08:37.669Z,22.17
2022-08-20T06:11:40.541Z,22.25
2022-08-20T06:14:43.184Z,22.28
2022-08-20T06:17:45.999Z,22.38
2022-08-20T06:21:00.572Z,22.55
2022-08-20T06:24:03.621Z,22.67
2022-08-20T06:27:06.960Z,22.91
2022-08-20T06:30:12.696Z,23.15
2022-08-20T06:33:15.346Z,23.37
2022-08-20T06:36:19.151Z,23.49
2022-08-20T06:39:21.779Z,23.58
2022-08-20T06:42:24.545Z,23.73
2022-08-20T06:45:31.521Z,23.76
2022-08-20T06:48:34.290Z,23.73
2022-08-20T06:51:37.467Z,23.69
2022-08-20T06:54:44.398Z,23.41
2022-08-20T06:57:48.344Z,23.57
2022-08-20T07:00:51.283Z,23.78
2022-08-20T07:03:55.060Z,23.86
2022-08-20T07:06:58.674Z,23.97
2022-08-20T07:10:09.125Z,24.00
2022-08-20T07:13:14.473Z,24.05
2022-08-20T07:16:17.097Z,24.01
2022-08-20T07:19:20.304Z,24.01
2022-08-20T07:22:24.803Z,24.13
2022-08-20T07:25:28.959Z,24.23
2022-08-20T07:28:34.474Z,24.25
2022-08-20T07:31:57.141Z,24.42
2022-08-20T07:35:00.316Z,24.48
2022-08-20T07:38:03.150Z,24.58
2022-08-20T07:41:09.985Z,24.65
2022-08-20T07:44:12.988Z,24.50
2022-08-20T07:47:19.086Z,24.34
2022-08-20T07:50:25.649Z,24.10
2022-08-20T07:53:30.237Z,23.86
2022-08-20T07:56:36.586Z,23.76
2022-08-20T07:59:39.173Z,23.60
2022-08-20T08:02:42.384Z,23.46
2022-08-20T08:05:48.723Z,23.15
2022-08-20T08:08:52.148Z,22.48
2022-08-20T08:11:57.803Z,21.47
2022-08-20T08:15:00.459Z,20.56
2022-08-20T08:18:11.107Z,20.12
2022-08-20T08:21:13.644Z,19.82
2022-08-20T08:24:21.704Z,19.73
2022-08-20T08:27:26.020Z,19.64
2022-08-20T08:30:28.794Z,19.48
2022-08-20T08:33:32.423Z,19.28
2022-08-20T08:36:35.248Z,19.41
2022-08-20T08:39:37.873Z,19.40
2022-08-20T08:42:45.845Z,19.33
2022-08-20T08:45:58.373Z,19.28
2022-08-20T08:49:05.069Z,19.20
2022-08-20T08:52:15.044Z,19.17
2022-08-20T08:55:21.831Z,19.15
2022-08-20T08:58:24.382Z,19.16
2022-08-20T09:01:54.752Z,19.19
2022-08-20T09:04:56.520Z,19.23
2022-08-20T09:08:02.977Z,19.15
2022-08-20T09:11:08.264Z,19.16
2022-08-20T09:14:11.175Z,19.18
2022-08-20T09:17:14.648Z,19.20
2022-08-20T09:20:18.392Z,19.13
2022-08-20T09:23:20.879Z,19.13
2022-08-20T09:26:23.643Z,19.07
2022-08-20T09:29:32.968Z,19.11
2022-08-20T09:32:36.259Z,19.18
2022-08-20T09:35:40.341Z,19.24
2022-08-20T09:38:43.194Z,19.25
2022-08-20T09:41:46.056Z,19.16
2022-08-20T09:44:48.851Z,19.05
2022-08-20T09:47:55.385Z,18.92
2022-08-20T09:51:00.663Z,18.88
2022-08-20T09:54:03.311Z,19.01
2022-08-20T09:57:09.274Z,19.06
2022-08-20T10:00:12.677Z,19.11
2022-08-20T10:03:16.798Z,19.05
2022-08-20T10:06:20.701Z,19.06
2022-08-20T10:09:23.541Z,19.03
2022-08-20T10:12:26.537Z,19.08
2022-08-20T10:15:30.008Z,19.17
2022-08-20T10:18:33.622Z,19.29
2022-08-20T10:21:38.811Z,19.42
2022-08-20T10:24:42.749Z,19.61
2022-08-20T10:27:45.704Z,19.89
2022-08-20T10:30:48.425Z,20.31
2022-08-20T10:33:50.929Z,20.89
2022-08-20T10:36:53.784Z,21.38
2022-08-20T10:39:57.035Z,21.48
2022-08-20T10:42:59.879Z,21.42
2022-08-20T10:46:04.804Z,21.49
2022-08-20T10:49:07.604Z,21.69
2022-08-20T10:52:10.337Z,21.66
2022-08-20T10:55:13.251Z,21.78
2022-08-20T10:58:15.867Z,21.97
2022-08-20T11:01:31.274Z,22.12
2022-08-20T11:04:36.527Z,22.25
2022-08-20T11:07:50.848Z,22.16
2022-08-20T11:11:03.104Z,22.30
2022-08-20T11:14:05.986Z,22.36
2022-08-20T11:17:08.877Z,22.48
2022-08-20T11:20:15.717Z,22.63
2022-08-20T11:23:18.356Z,22.77
2022-08-20T11:26:25.463Z,22.77
2022-08-20T11:29:31.024Z,22.89
2022-08-20T11:32:37.027Z,22.99
2022-08-20T11:35:49.079Z,22.95
2022-08-20T11:38:53.143Z,23.07
2022-08-20T11:41:55.783Z,23.27
2022-08-20T11:44:58.605Z,23.55
2022-08-20T11:48:01.123Z,23.65
2022-08-20T11:51:05.400Z,23.59
2022-08-20T11:54:08.092Z,23.73
2022-08-20T11:57:11.410Z,23.67
2022-08-20T12:00:18.263Z,23.74
2022-08-20T12:03:21.220Z,23.69
2022-08-20T12:06:23.859Z,23.69
2022-08-20T12:09:26.710Z,23.80
2022-08-20T12:12:29.393Z,23.91
2022-08-20T12:15:33.679Z,23.81
2022-08-20T12:18:36.287Z,23.91
2022-08-20T12:21:39.272Z,24.00
2022-08-20T12:24:41.845Z,24.01
2022-08-20T12:27:46.373Z,24.01
2022-08-20T12:30:49.028Z,24.11
2022-08-20T12:33:51.855Z,24.29
2022-08-20T12:37:05.998Z,24.50
2022-08-20T12:40:13.142Z,24.65
2022-08-20T12:43:15.790Z,24.49
2022-08-20T12:46:19.021Z,24.49
2022-08-20T12:49:21.531Z,24.57
2022-08-20T12:52:25.656Z,24.62
2022-08-20T12:55:28.789Z,24.77
2022-08-20T12:58:31.600Z,24.86
2022-08-20T13:01:34.140Z,24.53
2022-08-20T13:04:37.055Z,24.35
2022-08-20T13:07:40.290Z,24.40
2022-08-20T13:10:46.615Z,24.27
2022-08-20T13:13:49.149Z,24.24
2022-08-20T13:17:00.889Z,24.17
2022-08-20T13:20:09.731Z,24.23
2022-08-20T13:23:12.806Z,24.34
2022-08-20T13:26:15.432Z,24.44
2022-08-20T13:29:19.881Z,24.29
2022-08-20T13:32:23.380Z,24.25
2022-08-20T13:35:26.554Z,24.54
2022-08-20T13:38:29.184Z,24.48
2022-08-20T13:41:32.799Z,24.40
2022-08-20T13:44:36.117Z,24.35
2022-08-20T13:47:40.947Z,24.35
2022-08-20T13:50:47.256Z,24.37
2022-08-20T13:53:50.423Z,24.22
2022-08-20T13:56:53.717Z,24.18
2022-08-20T13:59:58.052Z,23.99
2022-08-20T14:03:01.339Z,23.96
2022-08-20T14:06:04.327Z,23.80
2022-08-20T14:09:06.846Z,23.79
2022-08-20T14:12:10.923Z,23.90
2022-08-20T14:15:13.940Z,23.97
2022-08-20T14:18:17.193Z,23.81
2022-08-20T14:21:19.718Z,23.74
2022-08-20T14:24:22.553Z,23.71
2022-08-20T14:27:30.558Z,23.56
2022-08-20T14:30:34.186Z,23.66
2022-08-20T14:33:38.466Z,23.62
2022-08-20T14:36:42.979Z,23.44
2022-08-20T14:39:48.413Z,23.51
2022-08-20T14:42:52.013Z,23.47
2022-08-20T14:45:54.533Z,23.47
2022-08-20T14:48:57.385Z,23.42
2022-08-20T14:51:59.854Z,23.40
2022-08-20T14:55:04.994Z,23.52
2022-08-20T14:58:09.299Z,23.69
2022-08-20T15:01:12.167Z,23.83
2022-08-20T15:04:14.785Z,23.78
2022-08-20T15:07:39.808Z,23.71
2022-08-20T15:10:43.074Z,23.76
2022-08-20T15:13:45.901Z,23.82
2022-08-20T15:16:48.581Z,23.73
2022-08-20T15:19:52.233Z,23.81
2022-08-20T15:22:55.334Z,23.73
2022-08-20T15:25:58.158Z,23.72
2022-08-20T15:29:00.673Z,23.70
2022-08-20T15:32:03.865Z,23.68
2022-08-20T15:35:09.891Z,23.56
2022-08-20T15:38:12.989Z,23.49
2022-08-20T15:41:15.743Z,23.44
2022-08-20T15:44:18.514Z,23.34
2022-08-20T15:47:21.047Z,23.22
2022-08-20T15:50:44.886Z,23.22
2022-08-20T15:53:56.554Z,23.13
2022-08-20T15:57:33.789Z,23.10
2022-08-20T16:00:42.892Z,23.13
2022-08-20T16:04:24.368Z,23.03
2022-08-20T16:07:41.071Z,23.07
2022-08-20T16:10:51.576Z,23.10
2022-08-20T16:14:15.382Z,23.06
2022-08-20T16:17:29.971Z,23.09
2022-08-20T16:20:47.933Z,23.09
2022-08-20T16:23:50.942Z,22.95
2022-08-20T16:27:15.131Z,22.94
2022-08-20T16:30:33.691Z,22.91
2022-08-20T16:33:45.255Z,22.85
2022-08-20T16:37:25.309Z,22.80
2022-08-20T16:40:51.120Z,22.71
2022-08-20T16:44:04.074Z,22.67
2022-08-20T16:47:31.471Z,22.66
2022-08-20T16:50:45.080Z,22.60
2022-08-20T16:53:47.540Z,22.36
2022-08-20T16:56:58.139Z,22.39
2022-08-20T17:00:16.162Z,22.38
2022-08-20T17:03:33.534Z,22.38
2022-08-20T17:06:49.285Z,22.34
2022-08-20T17:10:08.969Z,22.28
2022-08-20T17:13:15.401Z,22.23
2022-08-20T17:16:20.992Z,22.22
2022-08-20T17:19:29.784Z,22.15
2022-08-20T17:22:41.457Z,22.02
2022-08-20T17:25:54.532Z,21.90
2022-08-20T17:29:01.384Z,21.83
2022-08-20T17:32:21.084Z,21.75
2022-08-20T17:35:29.099Z,21.72
2022-08-20T17:38:39.069Z,21.65
2022-08-20T17:41:48.975Z,21.59
2022-08-20T17:44:55.562Z,21.49
2022-08-20T17:48:00.698Z,21.42
2022-08-20T17:51:15.860Z,21.32
2022-08-20T17:54:27.929Z,21.24
2022-08-20T17:57:36.927Z,21.19
2022-08-20T18:00:40.630Z,21.20
2022-08-20T18:03:43.566Z,21.27
2022-08-20T18:07:08.212Z,21.20
2022-08-20T18:10:20.450Z,21.30
2022-08-20T18:13:53.724Z,21.30
2022-08-20T18:17:42.913Z,21.27
2022-08-20T18:21:19.589Z,21.28
2022-08-20T18:24:30.022Z,21.21
2022-08-20T18:27:42.528Z,21.12
2022-08-20T18:30:58.219Z,21.08
2022-08-20T18:34:17.679Z,21.02
2022-08-20T18:37:25.412Z,21.09
2022-08-20T18:40:31.093Z,21.16
2022-08-20T18:43:36.583Z,21.24
2022-08-20T18:46:55.421Z,21.23
2022-08-20T18:50:24.676Z,21.09
2022-08-20T18:53:34.183Z,21.03
2022-08-20T18:56:42.362Z,21.03
2022-08-20T18:59:50.370Z,21.04
2022-08-20T19:03:03.245Z,20.94
2022-08-20T19:06:08.792Z,20.86
2022-08-20T19:09:44.119Z,20.79
2022-08-20T19:13:16.103Z,20.85
2022-08-20T19:16:34.521Z,21.00
2022-08-20T19:19:37.898Z,20.93
2022-08-20T19:22:43.846Z,20.86
2022-08-20T19:25:55.136Z,20.86
2022-08-20T19:29:01.784Z,20.88
2022-08-20T19:32:07.595Z,20.89
2022-08-20T19:35:17.935Z,20.97
2022-08-20T19:38:21.444Z,20.91
2022-08-20T19:41:34.102Z,20.89
2022-08-20T19:44:59.634Z,20.84
2022-08-20T19:48:27.258Z,20.87
2022-08-20T19:51:48.147Z,20.75
2022-08-20T19:54:53.790Z,20.86
2022-08-20T19:58:00.324Z,20.84
2022-08-20T20:01:09.350Z,20.85
2022-08-20T20:04:17.993Z,20.88
2022-08-20T20:07:39.533Z,20.79
2022-08-20T20:10:43.038Z,20.72
2022-08-20T20:13:45.731Z,20.77
2022-08-20T20:16:52.432Z,20.68
2022-08-20T20:20:02.276Z,20.68
2022-08-20T20:23:20.335Z,20.70
2022-08-20T20:26:24.103Z,20.69
2022-08-20T20:29:36.571Z,20.64
2022-08-20T20:32:49.991Z,20.70
2022-08-20T20:36:39.050Z,20.69
2022-08-20T20:39:45.134Z,20.63
2022-08-20T20:43:00.207Z,20.68
2022-08-20T20:46:23.771Z,20.60
2022-08-20T20:49:37.353Z,20.65
2022-08-20T20:52:54.620Z,20.69
2022-08-20T20:56:00.145Z,20.57
2022-08-20T20:59:06.858Z,20.66
2022-08-20T21:02:10.098Z,20.64
2022-08-20T21:05:15.468Z,20.59
2022-08-20T21:08:19.422Z,20.63
2022-08-20T21:11:22.165Z,20.55
2022-08-20T21:14:25.012Z,20.55
2022-08-20T21:17:27.528Z,20.51
2022-08-20T21:20:30.875Z,20.57
2022-08-20T21:23:40.238Z,20.58
2022-08-20T21:26:45.450Z,20.53
2022-08-20T21:29:48.169Z,20.54
2022-08-20T21:32:51.323Z,20.54
2022-08-20T21:35:54.666Z,20.48
2022-08-20T21:38:57.932Z,20.38
2022-08-20T21:42:03.704Z,20.36
2022-08-20T21:45:09.079Z,20.29
2022-08-20T21:48:11.674Z,20.27
2022-08-20T21:51:14.485Z,20.21
2022-08-20T21:54:18.518Z,20.24
2022-08-20T21:57:25.599Z,20.15
2022-08-20T22:00:46.698Z,20.13
2022-08-20T22:03:51.879Z,20.12
2022-08-20T22:06:54.753Z,20.15
2022-08-20T22:09:57.628Z,20.00
2022-08-20T22:13:00.244Z,20.04
2022-08-20T22:16:06.295Z,19.95
2022-08-20T22:19:10.717Z,19.97
2022-08-20T22:22:18.321Z,19.92
2022-08-20T22:25:20.934Z,19.93
2022-08-20T22:28:24.051Z,19.99
2022-08-20T22:31:29.955Z,19.99
2022-08-20T22:34:35.144Z,19.86
2022-08-20T22:37:37.728Z,19.89
2022-08-20T22:40:41.174Z,19.90
2022-08-20T22:43:56.053Z,19.89
2022-08-20T22:47:05.755Z,19.83
2022-08-20T22:50:10.184Z,19.86
2022-08-20T22:53:14.617Z,19.84
2022-08-20T22:56:19.665Z,19.80
2022-08-20T22:59:24.712Z,19.74
2022-08-20T23:02:27.866Z,19.73
2022-08-20T23:05:33.059Z,19.80
2022-08-20T23:08:36.252Z,19.71
2022-08-20T23:11:39.059Z,19.78
2022-08-20T23:14:41.782Z,19.74
2022-08-20T23:17:45.310Z,19.80
2022-08-20T23:20:54.183Z,19.66
2022-08-20T23:23:57.037Z,19.66
2022-08-20T23:26:59.694Z,19.57
2022-08-20T23:30:02.499Z,19.65
2022-08-20T23:33:05.501Z,19.67
2022-08-20T23:36:10.623Z,19.53
2022-08-20T23:39:13.741Z,19.55
2022-08-20T23:42:16.858Z,19.54
2022-08-20T23:45:19.769Z,19.49
2022-08-20T23:48:23.148Z,19.49
2022-08-20T23:51:25.736Z,19.47
2022-08-20T23:54:30.977Z,19.40
2022-08-20T23:57:33.984Z,19.49
